Holden, ME (04429)

11:37 PM EDT on July 24, 2016 (GMT -0400)
Dole Hill | | Change Station

Elev 463 ft 44.75 °N, 68.67 °W | Updated 54 seconds ago

Mostly Cloudy
Mostly Cloudy
70.0 °F
Feels Like 70.0 °F
N
2.7
Wind Variable Wind from WNW
Gusts 4.0 mph

Today
High -- | Low -- °F
--% Chance of Precip.
Yesterday
High -- | Low -- °F
Precip. -- in
Pressure 29.94 in
Visibility 10.0 miles
Clouds Mostly Cloudy 6000 ft
Dew Point 57 °F
Humidity 63%
Rainfall 0.00 in
Snow Depth Not available.
5:12 AM 8:09 PM
Waning Gibbous, 70% visible
METAR KBGR 250253Z 00000KT 10SM BKN060 21/15 A2995 RMK AO2 SLP137 T02110150 50009
Pressure 29.94 in
Visibility 10.0 miles
Clouds Mostly Cloudy 6000 ft
Dew Point 57 °F
Humidity 63%
Rainfall 0.00 in
Snow Depth Not available.
5:12 AM 8:09 PM
Waning Gibbous, 70% visible
METAR KBGR 250253Z 00000KT 10SM BKN060 21/15 A2995 RMK AO2 SLP137 T02110150 50009

10-Day Weather Forecast

Almanac

Astronomy

Jul. 24, 2016 Rise Set
Actual Time
Civil Twilight
Nautical Twilight
Astronomical Twilight
Moon
Length of Visible Light
Length of Day
Tomorrow will be .
, % of the Moon is Illuminated

Today's Extremes

State Highs State Lows

Community

WunderPhotos

Upload Photos

1,927,256 photos uploaded!

WunderBlog® & News

Nearby

Air Quality

  Air Quality AQ Index Pollutant
Not available.

Snow Depth

Station Depth Elevation

Earthquake Activity

City Distance Mag. Time & Date
Minimum magnitude displayed is 2.5.

Coastal Water Temperatures

Place Temperature

Stations

Nearby Weather Stations

Station Location Temp. Windchill Dew Point Humidity Wind Precip. Elev Updated Type
                   

Watches & Warnings

There are currently no watches in effect.